Airfield :
LOGIN :

Register | Disclaimer

   EN    FR    IT 

 










Legend :    VFR   Marginal VFR   IFR   Intensive IFR   Very Intensive IFR
Visi :
Ceiling :
>= 8 km
>= 3000ft
5 to 8 km
1000 to 3000 ft
1500m to 5 km
500 to 1000 ft
800 to 1500m
200 to 500 ft
< 800m
< 200 ft
Symbols :   Thunderstorms  Fog  Heavy snow  Heavy precipitations  Wind > 20 kt
SIGMETs :     Misc.  Thunderstorms  Icing  Turbulence  Mountain Waves  Volcanic Ashes







- Airport Elevation : 364 ft
- IATA code : FRA


EDDF - Frankfurt Int.

CURRENT METAR :
  • 140950Z 24011KT 210V310 9999 SCT028 BKN100 21/14 Q1015 NOSIG

EXPIRED METARs :
  • 140920Z 22010KT 9999 SCT026 SCT130 21/14 Q1014 NOSIG
  • 140850Z 22008KT 190V250 9999 FEW022 SCT090 21/14 Q1014 NOSIG
  • 140820Z 26010KT 230V290 9999 SCT019 SCT090 20/14 Q1014 NOSIG
  • 140750Z 21009KT 9999 FEW019 SCT066 19/14 Q1014 NOSIG
  • 140720Z 23012KT 9999 FEW020 SCT068 BKN100 18/14 Q1014 NOSIG

TAF TAF EDDF
Valid from the 14 at 06:00 until the 15 at 12:00 UTC


140500Z 1406/1512 20007KT 9999 SCT040
TEMPO 1406/1412 BKN035
BECMG 1407/1411 26010KT
BECMG 1420/1423 25004KT
No reported NOTAMs for that airfield.



MET'MAP, your aeronautical weather chart ! - Copyright ORBIFLY December 2007 - Disclaimer

ORBIFLY MET'MAP TEAM :

Programming & Development : Alexandra Zaïnal
Concept & Development : Baudouin d'Aumeries
Co-Development & Prog : Marc-Olivier Méhu
Technical & hardware support : Manuel Goepfert

Contact : metmap@orbifly.com




SOURCES & CREDITS :

   NOAA